Time;durP1;ratioP1;P1;durP2;ratioP2;P2;SDS_P1;SDS_P2;PMS_P1;PMS_P2;Temp;Humidity;BMP_temperature;BMP_pressure;BME280_temperature;BME280_humidity;BME280_pressure;Samples;Min_cycle;Max_cycle;Signal;HPM_P1;HPM_P2
2024/01/15 00:00:40;;;;;;;17.53;9.67;;;;;;;0.95;100.00;98986.09;4991654;28;20286;-80
2024/01/15 00:03:07;;;;;;;15.53;9.70;;;;;;;0.96;100.00;98984.34;4991327;28;20210;-80
2024/01/15 00:05:33;;;;;;;14.17;9.10;;;;;;;0.95;100.00;98980.88;4989997;28;20212;-79
2024/01/15 00:08:00;;;;;;;13.87;8.87;;;;;;;0.92;100.00;98977.53;4990733;28;20226;-80
2024/01/15 00:10:26;;;;;;;14.73;9.77;;;;;;;0.91;100.00;98973.22;4987174;28;20231;-78
2024/01/15 00:12:52;;;;;;;13.80;9.77;;;;;;;0.93;100.00;98977.47;4991815;28;20222;-79
2024/01/15 00:15:19;;;;;;;14.03;9.23;;;;;;;0.93;100.00;98971.38;4985713;28;20207;-80
2024/01/15 00:17:47;;;;;;;12.83;9.73;;;;;;;0.92;100.00;98969.69;4984869;28;20234;-79
2024/01/15 00:20:13;;;;;;;12.20;8.13;;;;;;;0.94;100.00;98968.69;4988444;28;20663;-79
2024/01/15 00:22:40;;;;;;;11.70;8.37;;;;;;;0.96;100.00;98960.75;4993002;28;20204;-79
2024/01/15 00:25:06;;;;;;;12.43;8.37;;;;;;;0.97;100.00;98967.69;4988658;28;20569;-79
2024/01/15 00:27:33;;;;;;;12.00;7.37;;;;;;;0.93;100.00;98950.41;4987882;28;20352;-79
2024/01/15 00:29:59;;;;;;;11.43;7.50;;;;;;;0.95;100.00;98956.41;4987166;28;20228;-79
2024/01/15 00:32:26;;;;;;;10.27;7.27;;;;;;;0.91;100.00;98953.09;4983479;28;20212;-79
2024/01/15 00:34:53;;;;;;;10.67;7.33;;;;;;;0.91;100.00;98950.47;4990620;28;20224;-80
2024/01/15 00:37:20;;;;;;;10.70;7.00;;;;;;;0.86;100.00;98955.13;4990360;28;20230;-79
2024/01/15 00:39:46;;;;;;;9.73;6.00;;;;;;;0.83;100.00;98943.94;4985773;28;20215;-79
2024/01/15 00:42:13;;;;;;;9.90;6.10;;;;;;;0.82;100.00;98950.13;4984833;28;20238;-80
2024/01/15 00:44:39;;;;;;;7.77;5.10;;;;;;;0.82;100.00;98952.75;4988260;28;20215;-80
2024/01/15 00:47:06;;;;;;;9.47;5.67;;;;;;;0.82;100.00;98950.13;4981541;28;20243;-80
2024/01/15 00:49:32;;;;;;;9.27;5.73;;;;;;;0.80;100.00;98955.44;4990109;28;20211;-79
2024/01/15 00:52:00;;;;;;;8.03;5.83;;;;;;;0.87;100.00;98961.22;4984900;28;20295;-80
2024/01/15 00:54:27;;;;;;;6.83;4.73;;;;;;;0.87;100.00;98961.22;4985596;28;20215;-79
2024/01/15 00:56:54;;;;;;;8.40;5.50;;;;;;;0.84;100.00;98948.28;4989635;28;20223;-79
2024/01/15 00:59:21;;;;;;;8.60;5.60;;;;;;;0.84;100.00;98932.53;4985807;28;20560;-80
2024/01/15 01:01:47;;;;;;;8.80;6.07;;;;;;;0.78;100.00;98925.84;4989406;28;20200;-79
2024/01/15 01:04:14;;;;;;;7.97;5.83;;;;;;;0.80;100.00;98933.63;4986988;28;20573;-79
2024/01/15 01:06:40;;;;;;;7.20;4.80;;;;;;;0.81;100.00;98927.47;4987028;28;20802;-80
2024/01/15 01:09:08;;;;;;;7.40;5.30;;;;;;;0.81;100.00;98935.31;4989506;28;20211;-79
2024/01/15 01:11:35;;;;;;;7.73;5.23;;;;;;;0.81;100.00;98936.16;4987109;28;20250;-80
2024/01/15 01:14:01;;;;;;;7.70;5.20;;;;;;;0.77;100.00;98920.66;4985935;28;20204;-79
2024/01/15 01:16:28;;;;;;;9.57;5.40;;;;;;;0.78;100.00;98919.75;4989338;28;20218;-79
2024/01/15 01:18:54;;;;;;;7.73;4.80;;;;;;;0.75;100.00;98935.63;4987849;28;20210;-79
2024/01/15 01:21:21;;;;;;;8.27;4.53;;;;;;;0.76;100.00;98921.59;4992719;28;20212;-78
2024/01/15 01:23:47;;;;;;;8.17;5.23;;;;;;;0.72;100.00;98909.59;4990448;28;20203;-79
2024/01/15 01:26:18;;;;;;;6.97;4.80;;;;;;;0.65;100.00;98907.28;4988547;28;20212;-80
2024/01/15 01:28:45;;;;;;;8.07;3.83;;;;;;;0.68;100.00;98922.00;4984642;28;20662;-80
2024/01/15 01:31:11;;;;;;;7.10;4.00;;;;;;;0.67;100.00;98922.94;4987232;28;20232;-80
2024/01/15 01:33:39;;;;;;;8.03;4.73;;;;;;;0.67;100.00;98923.78;4984959;28;20684;-79
2024/01/15 01:36:08;;;;;;;7.03;3.97;;;;;;;0.64;100.00;98915.22;4986804;28;20203;-79
2024/01/15 01:38:35;;;;;;;8.20;4.03;;;;;;;0.68;100.00;98914.16;4986396;28;20235;-79
2024/01/15 01:41:01;;;;;;;9.27;4.07;;;;;;;0.68;100.00;98904.50;4986344;28;20206;-81
2024/01/15 01:43:29;;;;;;;11.60;3.80;;;;;;;0.69;100.00;98911.44;4990772;28;20234;-79
2024/01/15 01:45:58;;;;;;;5.53;2.67;;;;;;;0.69;100.00;98921.94;4989316;28;20219;-80
2024/01/15 01:48:26;;;;;;;10.10;4.07;;;;;;;0.73;100.00;98913.88;4988701;28;20240;-79
2024/01/15 01:50:53;;;;;;;13.53;4.37;;;;;;;0.76;100.00;98900.63;4992958;28;20227;-78
2024/01/15 01:53:20;;;;;;;8.53;3.83;;;;;;;0.74;100.00;98897.25;4990240;28;20207;-79
2024/01/15 01:55:48;;;;;;;7.53;4.27;;;;;;;0.73;100.00;98901.63;4994169;28;20210;-79
2024/01/15 01:58:16;;;;;;;7.17;4.40;;;;;;;0.73;100.00;98890.31;4989544;28;20727;-79
2024/01/15 02:00:44;;;;;;;7.87;3.37;;;;;;;0.70;100.00;98891.34;4991465;28;20619;-79
2024/01/15 02:03:10;;;;;;;7.77;3.30;;;;;;;0.72;100.00;98893.88;4990692;28;20222;-79
2024/01/15 02:05:38;;;;;;;8.13;3.43;;;;;;;0.75;100.00;98894.53;4989933;28;20207;-79
2024/01/15 02:08:05;;;;;;;10.50;3.93;;;;;;;0.76;100.00;98895.41;4992548;28;20227;-79
2024/01/15 02:10:32;;;;;;;7.83;3.53;;;;;;;0.75;100.00;98883.22;4992749;28;20243;-78
2024/01/15 02:12:58;;;;;;;6.87;3.13;;;;;;;0.79;100.00;98888.22;4990594;28;20203;-78
2024/01/15 02:15:25;;;;;;;11.10;3.50;;;;;;;0.83;100.00;98891.53;4991471;28;20203;-79
2024/01/15 02:18:00;;;;;;;10.13;3.10;;;;;;;0.79;100.00;98887.38;4987331;28;20224;-79
2024/01/15 02:20:27;;;;;;;7.00;3.00;;;;;;;0.80;100.00;98894.31;4990516;28;20294;-80
2024/01/15 02:22:54;;;;;;;8.10;3.07;;;;;;;0.83;100.00;98896.78;4987558;28;20208;-79
2024/01/15 02:25:22;;;;;;;9.23;2.47;;;;;;;0.83;100.00;98887.16;4989150;28;20211;-79
2024/01/15 02:27:48;;;;;;;9.00;3.27;;;;;;;0.83;100.00;98892.41;4991912;28;20250;-79
2024/01/15 02:30:15;;;;;;;4.93;2.13;;;;;;;0.87;100.00;98877.38;4995232;28;20218;-79
2024/01/15 02:32:42;;;;;;;7.77;3.10;;;;;;;0.91;100.00;98878.88;4989875;28;20580;-79
2024/01/15 02:35:08;;;;;;;6.30;2.50;;;;;;;0.96;100.00;98876.88;4993833;28;20660;-79
2024/01/15 02:37:35;;;;;;;10.27;2.90;;;;;;;0.97;100.00;98879.41;4990849;28;20227;-80
2024/01/15 02:40:01;;;;;;;6.57;3.23;;;;;;;0.97;100.00;98873.31;4993010;28;20708;-78
2024/01/15 02:42:29;;;;;;;4.37;2.40;;;;;;;0.97;100.00;98878.56;4989240;28;20291;-79
2024/01/15 02:44:55;;;;;;;9.60;2.47;;;;;;;0.99;100.00;98874.94;4989101;28;20214;-79
2024/01/15 02:47:22;;;;;;;5.77;2.63;;;;;;;1.00;100.00;98871.38;4991150;28;20235;-79
2024/01/15 02:49:49;;;;;;;10.57;2.63;;;;;;;1.00;100.00;98878.41;4986093;28;20227;-79
2024/01/15 02:52:15;;;;;;;9.17;2.80;;;;;;;1.03;100.00;98880.88;4991501;28;20230;-79
2024/01/15 02:54:42;;;;;;;7.27;2.93;;;;;;;0.98;100.00;98878.47;4992902;28;20211;-79
2024/01/15 02:57:08;;;;;;;10.93;2.50;;;;;;;1.00;100.00;98873.16;4995486;28;20273;-78
2024/01/15 02:59:36;;;;;;;5.37;1.90;;;;;;;1.00;100.00;98870.53;4990347;28;20216;-79
2024/01/15 03:02:03;;;;;;;6.63;2.90;;;;;;;1.00;99.92;98875.78;4994980;28;20212;-78
2024/01/15 03:04:29;;;;;;;10.03;2.67;;;;;;;1.02;99.38;98881.78;4986970;28;20211;-79
2024/01/15 03:06:55;;;;;;;6.93;2.00;;;;;;;1.06;99.41;98885.97;4987775;28;20228;-79
2024/01/15 03:09:22;;;;;;;5.97;2.20;;;;;;;1.06;98.92;98879.88;4987195;28;20215;-77
2024/01/15 03:11:48;;;;;;;10.57;2.57;;;;;;;1.05;99.22;98881.63;4991785;28;20231;-79
2024/01/15 03:14:15;;;;;;;10.50;2.67;;;;;;;1.08;99.21;98876.22;4990461;28;20230;-79
2024/01/15 03:16:43;;;;;;;6.27;1.73;;;;;;;1.10;98.48;98873.50;4993156;28;20278;-79
2024/01/15 03:19:09;;;;;;;6.07;1.73;;;;;;;1.10;98.36;98858.63;4990556;28;20215;-78
2024/01/15 03:21:36;;;;;;;9.60;2.10;;;;;;;1.13;97.51;98865.50;4988663;28;20204;-79
2024/01/15 03:24:02;;;;;;;9.47;2.60;;;;;;;1.15;98.03;98874.13;4988851;28;20222;-79
2024/01/15 03:26:28;;;;;;;5.97;1.83;;;;;;;1.14;97.80;98875.03;4991574;28;20215;-79
2024/01/15 03:28:55;;;;;;;7.40;2.33;;;;;;;1.12;97.72;98876.91;4988933;28;20212;-80
2024/01/15 03:31:21;;;;;;;2.70;1.87;;;;;;;1.13;98.01;98875.97;4992925;28;20646;-80
2024/01/15 03:33:49;;;;;;;6.73;1.63;;;;;;;1.12;97.91;98867.25;4988138;28;20208;-79
2024/01/15 03:36:16;;;;;;;8.53;2.30;;;;;;;1.13;98.66;98874.19;4982221;28;20207;-80
2024/01/15 03:38:42;;;;;;;4.97;1.90;;;;;;;1.10;98.40;98874.34;4991050;28;20235;-79
2024/01/15 03:41:09;;;;;;;7.37;2.33;;;;;;;1.11;99.18;98876.06;4991782;28;20196;-78
2024/01/15 03:43:35;;;;;;;6.17;2.00;;;;;;;1.17;99.75;98865.25;4989990;28;20195;-79
2024/01/15 03:46:04;;;;;;;7.40;2.30;;;;;;;1.21;99.75;98869.41;4990553;28;20579;-79
2024/01/15 03:48:30;;;;;;;6.07;2.30;;;;;;;1.18;99.57;98869.56;4988514;28;20431;-79
2024/01/15 03:50:58;;;;;;;8.70;2.23;;;;;;;1.12;99.50;98851.53;4991077;28;20230;-79
2024/01/15 03:53:25;;;;;;;5.03;2.53;;;;;;;1.16;99.06;98857.47;4982376;28;20218;-79
2024/01/15 03:55:52;;;;;;;7.83;2.37;;;;;;;1.16;99.13;98867.94;4989866;28;20656;-79
2024/01/15 03:58:18;;;;;;;6.47;2.10;;;;;;;1.15;99.46;98859.25;4987637;28;20234;-79
2024/01/15 04:00:45;;;;;;;4.03;1.80;;;;;;;1.17;99.58;98865.25;4992070;28;20207;-79
2024/01/15 04:03:11;;;;;;;5.50;2.20;;;;;;;1.18;100.00;98872.19;4987309;28;20215;-78
2024/01/15 04:05:39;;;;;;;2.67;1.40;;;;;;;1.20;99.82;98867.72;4986258;28;20231;-79
2024/01/15 04:08:07;;;;;;;3.87;1.67;;;;;;;1.23;99.93;98879.81;4993320;28;20600;-79
2024/01/15 04:10:34;;;;;;;5.13;1.63;;;;;;;1.25;99.72;98876.19;4987541;28;20219;-78
2024/01/15 04:13:01;;;;;;;6.30;1.70;;;;;;;1.26;99.46;98869.97;4992083;28;20203;-80
2024/01/15 04:15:28;;;;;;;9.50;2.00;;;;;;;1.26;99.94;98888.34;4990157;28;20213;-79
2024/01/15 04:17:55;;;;;;;7.07;1.80;;;;;;;1.25;100.00;98875.34;4991176;28;20289;-79
2024/01/15 04:20:21;;;;;;;8.23;2.67;;;;;;;1.26;100.00;98890.13;4991118;28;20207;-79
2024/01/15 04:22:47;;;;;;;8.47;2.00;;;;;;;1.25;100.00;98878.81;4984817;28;20200;-79
2024/01/15 04:25:15;;;;;;;7.47;1.90;;;;;;;1.27;100.00;98865.59;4989727;28;20213;-79
2024/01/15 04:27:42;;;;;;;6.27;1.90;;;;;;;1.25;99.42;98889.31;4983576;28;20224;-79
2024/01/15 04:30:09;;;;;;;3.97;1.60;;;;;;;1.26;100.00;98887.50;4990904;28;20202;-78
2024/01/15 04:32:35;;;;;;;5.47;1.40;;;;;;;1.26;100.00;98888.34;4981054;28;20236;-79
2024/01/15 04:35:02;;;;;;;7.53;2.23;;;;;;;1.24;99.88;98877.13;4988461;28;20199;-79
2024/01/15 04:37:28;;;;;;;5.53;1.40;;;;;;;1.31;100.00;98872.38;4985386;28;20244;-79
2024/01/15 04:39:55;;;;;;;6.37;2.10;;;;;;;1.30;99.47;98865.44;4990959;28;20215;-80
2024/01/15 04:42:23;;;;;;;3.20;1.80;;;;;;;1.28;99.63;98878.63;4989906;28;20202;-79
2024/01/15 04:44:49;;;;;;;5.93;2.00;;;;;;;1.25;99.97;98863.06;4987174;28;20596;-79
2024/01/15 04:47:16;;;;;;;5.70;1.70;;;;;;;1.27;100.00;98868.22;4987981;28;20250;-80
2024/01/15 04:49:43;;;;;;;3.97;1.60;;;;;;;1.23;99.96;98864.94;4988753;28;20211;-78
2024/01/15 04:52:10;;;;;;;7.30;2.10;;;;;;;1.24;100.00;98877.13;4987305;28;20711;-79
2024/01/15 04:54:36;;;;;;;6.07;1.77;;;;;;;1.25;100.00;98855.22;4989960;28;20211;-79
2024/01/15 04:57:03;;;;;;;7.50;1.90;;;;;;;1.26;100.00;98854.25;4987425;28;20235;-79
2024/01/15 04:59:31;;;;;;;7.73;1.50;;;;;;;1.28;99.91;98865.50;4992047;28;20755;-78
2024/01/15 05:01:58;;;;;;;7.23;2.33;;;;;;;1.28;100.00;98865.50;4988991;28;20204;-79
2024/01/15 05:04:25;;;;;;;2.87;1.17;;;;;;;1.24;100.00;98861.38;4987813;28;20265;-79
2024/01/15 05:06:51;;;;;;;9.60;2.10;;;;;;;1.23;100.00;98864.09;4987960;28;20223;-79
2024/01/15 05:09:18;;;;;;;5.80;1.73;;;;;;;1.26;100.00;98859.50;4981154;28;20238;-79
2024/01/15 05:11:45;;;;;;;5.40;2.40;;;;;;;1.25;100.00;98860.47;4988405;28;20231;-78
2024/01/15 05:14:11;;;;;;;8.03;2.83;;;;;;;1.23;100.00;98856.22;4992072;28;20204;-79
2024/01/15 05:16:40;;;;;;;6.77;1.87;;;;;;;1.22;100.00;98852.75;4989553;28;20211;-79
2024/01/15 05:19:08;;;;;;;5.87;1.90;;;;;;;1.18;100.00;98852.97;4991017;28;20207;-78
2024/01/15 05:21:35;;;;;;;5.50;2.07;;;;;;;1.16;100.00;98855.69;4991638;28;20218;-79
2024/01/15 05:24:01;;;;;;;6.83;2.13;;;;;;;1.16;100.00;98862.72;4993247;28;20216;-78
2024/01/15 05:26:28;;;;;;;7.97;2.17;;;;;;;1.15;100.00;98856.63;4987354;28;20214;-80
2024/01/15 05:28:54;;;;;;;6.13;2.20;;;;;;;1.15;100.00;98861.00;4986698;28;20219;-79
2024/01/15 05:31:21;;;;;;;7.90;2.43;;;;;;;1.17;100.00;98854.75;4986109;28;20234;-79
2024/01/15 05:33:48;;;;;;;6.37;2.30;;;;;;;1.18;100.00;98853.84;4988758;28;20201;-80
2024/01/15 05:36:15;;;;;;;5.73;2.17;;;;;;;1.21;100.00;98851.06;4985089;28;21527;-80
2024/01/15 05:38:41;;;;;;;7.17;2.80;;;;;;;1.20;100.00;98856.38;4982839;28;20226;-79
2024/01/15 05:41:08;;;;;;;8.70;2.30;;;;;;;1.19;100.00;98858.16;4995245;28;20203;-79
2024/01/15 05:43:35;;;;;;;6.40;2.67;;;;;;;1.17;100.00;98865.25;4991676;28;20850;-79
2024/01/15 05:46:01;;;;;;;6.17;2.57;;;;;;;1.17;100.00;98854.75;4982570;28;20213;-79
2024/01/15 05:48:27;;;;;;;7.77;2.80;;;;;;;1.15;100.00;98851.38;4989639;28;20730;-79
2024/01/15 05:50:55;;;;;;;4.53;2.20;;;;;;;1.13;100.00;98847.97;4991898;28;20223;-80
2024/01/15 05:53:22;;;;;;;5.00;1.70;;;;;;;1.13;100.00;98842.75;4986954;28;20227;-80
2024/01/15 05:55:49;;;;;;;8.03;2.83;;;;;;;1.10;100.00;98831.56;4986455;28;20207;-80
2024/01/15 05:58:15;;;;;;;5.70;2.93;;;;;;;1.07;100.00;98837.84;4991162;28;20695;-79
2024/01/15 06:00:42;;;;;;;5.37;2.87;;;;;;;1.04;100.00;98832.75;4989754;28;20602;-79
2024/01/15 06:03:08;;;;;;;5.53;3.30;;;;;;;0.98;100.00;98830.47;4994861;28;20689;-80
2024/01/15 06:05:35;;;;;;;7.20;2.93;;;;;;;1.00;100.00;98832.06;4988204;28;20847;-80
2024/01/15 06:08:03;;;;;;;7.20;2.57;;;;;;;0.99;100.00;98830.38;4991724;28;20582;-80
2024/01/15 06:10:30;;;;;;;6.30;2.83;;;;;;;1.01;100.00;98831.16;4992867;28;20207;-80
2024/01/15 06:12:56;;;;;;;5.93;2.90;;;;;;;0.99;100.00;98834.78;4992566;28;20226;-80
2024/01/15 06:15:22;;;;;;;6.97;2.47;;;;;;;0.95;100.00;98843.72;4983110;28;20203;-79
2024/01/15 06:17:49;;;;;;;7.33;2.17;;;;;;;0.98;100.00;98843.56;4985582;28;20235;-79
2024/01/15 06:20:15;;;;;;;3.67;2.30;;;;;;;1.00;100.00;98836.47;4995573;28;20204;-79
2024/01/15 06:22:42;;;;;;;4.63;2.00;;;;;;;1.02;100.00;98835.47;4992257;28;20207;-79
2024/01/15 06:25:10;;;;;;;5.40;2.50;;;;;;;1.02;100.00;98834.63;4991694;28;20203;-79
2024/01/15 06:27:36;;;;;;;5.00;2.70;;;;;;;0.99;100.00;98835.63;4991072;28;20230;-79
2024/01/15 06:30:03;;;;;;;5.47;1.90;;;;;;;0.98;100.00;98838.31;4993305;28;20218;-78
2024/01/15 06:32:30;;;;;;;6.27;2.50;;;;;;;0.94;100.00;98839.41;4984674;28;20228;-79
2024/01/15 06:34:56;;;;;;;6.03;2.60;;;;;;;0.91;100.00;98848.28;4996887;28;20221;-79
2024/01/15 06:37:23;;;;;;;6.13;2.47;;;;;;;0.88;100.00;98845.84;4984848;28;20705;-79
2024/01/15 06:39:49;;;;;;;6.03;2.50;;;;;;;0.91;100.00;98845.66;4993811;28;20613;-79
2024/01/15 06:42:17;;;;;;;5.00;2.40;;;;;;;0.88;100.00;98858.09;4989369;28;20705;-79
2024/01/15 06:44:44;;;;;;;5.77;2.10;;;;;;;0.87;100.00;98859.88;4990755;28;20212;-79
2024/01/15 06:47:10;;;;;;;7.03;2.37;;;;;;;0.88;100.00;98864.19;4990695;28;20704;-79
2024/01/15 06:49:37;;;;;;;8.80;3.00;;;;;;;0.88;100.00;98863.34;4992343;28;20215;-79
2024/01/15 06:52:04;;;;;;;4.90;2.03;;;;;;;0.85;100.00;98856.47;4990087;28;20228;-78
2024/01/15 06:54:30;;;;;;;11.10;3.23;;;;;;;0.84;100.00;98865.25;4990472;28;20218;-79
2024/01/15 06:56:57;;;;;;;8.90;3.13;;;;;;;0.89;100.00;98867.66;4981194;28;21472;-78
2024/01/15 06:59:24;;;;;;;6.50;2.23;;;;;;;0.91;100.00;98865.75;4977939;28;20211;-79
2024/01/15 07:01:51;;;;;;;10.97;3.40;;;;;;;0.91;100.00;98865.75;4987368;28;20199;-79
2024/01/15 07:04:17;;;;;;;8.93;4.07;;;;;;;0.95;100.00;98862.06;4988639;28;20220;-79
2024/01/15 07:06:44;;;;;;;10.50;3.33;;;;;;;0.92;100.00;98862.22;4984709;28;20211;-79
2024/01/15 07:09:11;;;;;;;5.80;2.50;;;;;;;0.93;100.00;98851.66;4984300;28;20307;-79
2024/01/15 07:11:37;;;;;;;5.60;2.40;;;;;;;0.95;100.00;98857.66;4985955;28;21524;-78
2024/01/15 07:14:05;;;;;;;4.70;1.67;;;;;;;1.02;100.00;98855.59;4991581;28;20219;-80
2024/01/15 07:16:32;;;;;;;7.50;2.87;;;;;;;0.98;100.00;98862.75;4991636;28;20688;-79
2024/01/15 07:18:59;;;;;;;6.87;3.10;;;;;;;1.05;100.00;98865.91;4987508;28;20671;-80
2024/01/15 07:21:25;;;;;;;6.43;2.60;;;;;;;1.01;100.00;98859.97;4984598;28;20207;-79
2024/01/15 07:23:52;;;;;;;4.80;1.90;;;;;;;1.06;100.00;98858.91;4983274;28;20212;-79
2024/01/15 07:26:18;;;;;;;5.80;2.40;;;;;;;1.03;100.00;98858.13;4984473;28;20699;-79
2024/01/15 07:28:45;;;;;;;6.13;2.23;;;;;;;1.01;100.00;98859.97;4986270;28;20475;-79
2024/01/15 07:31:11;;;;;;;5.50;2.23;;;;;;;1.04;100.00;98867.69;4985899;28;20257;-79
2024/01/15 07:33:39;;;;;;;7.53;2.53;;;;;;;1.01;100.00;98859.13;4987467;28;20232;-80
2024/01/15 07:36:06;;;;;;;3.17;2.37;;;;;;;1.05;100.00;98871.16;4991592;28;20216;-80
2024/01/15 07:38:32;;;;;;;5.77;2.50;;;;;;;1.00;100.00;98871.38;4992633;28;20223;-80
2024/01/15 07:40:59;;;;;;;4.37;2.63;;;;;;;1.04;100.00;98869.47;4993533;28;20215;-79
2024/01/15 07:43:28;;;;;;;6.47;3.20;;;;;;;1.05;100.00;98873.78;4987660;28;20306;-80
2024/01/15 07:45:55;;;;;;;3.70;1.97;;;;;;;1.05;100.00;98873.78;4989158;28;20210;-80
2024/01/15 07:48:21;;;;;;;5.80;3.03;;;;;;;1.04;100.00;98870.31;4990436;28;20240;-79
2024/01/15 07:50:49;;;;;;;5.23;2.20;;;;;;;1.07;100.00;98871.94;4990599;28;20207;-80
2024/01/15 07:53:16;;;;;;;3.87;2.40;;;;;;;1.05;100.00;98860.66;4989216;28;20244;-80
2024/01/15 07:55:42;;;;;;;4.33;2.20;;;;;;;1.01;100.00;98877.47;4984337;28;20223;-79
2024/01/15 07:58:09;;;;;;;4.30;1.93;;;;;;;0.98;100.00;98877.63;4986792;28;20235;-79
2024/01/15 08:00:35;;;;;;;5.37;2.30;;;;;;;0.95;100.00;98880.41;4990061;28;20208;-79
2024/01/15 08:03:02;;;;;;;3.80;2.50;;;;;;;0.93;100.00;98882.25;4986402;28;20206;-80
2024/01/15 08:05:29;;;;;;;4.37;2.20;;;;;;;0.91;100.00;98879.72;4986426;28;20214;-80
2024/01/15 08:07:57;;;;;;;4.03;2.07;;;;;;;0.92;100.00;98883.19;4988564;28;20254;-80
2024/01/15 08:10:23;;;;;;;6.47;2.60;;;;;;;0.90;100.00;98874.56;4989628;28;20214;-80
2024/01/15 08:12:50;;;;;;;4.67;2.07;;;;;;;0.93;100.00;98874.41;4984628;28;20238;-79
2024/01/15 08:15:17;;;;;;;6.10;2.20;;;;;;;0.94;100.00;98878.72;4985997;28;20218;-79
2024/01/15 08:17:43;;;;;;;6.97;2.20;;;;;;;0.98;100.00;98877.63;4986340;28;20239;-79
2024/01/15 08:20:11;;;;;;;7.00;2.20;;;;;;;0.98;100.00;98875.00;4993207;28;20219;-79
2024/01/15 08:22:39;;;;;;;4.87;2.00;;;;;;;0.97;100.00;98883.81;4993588;28;20231;-79
2024/01/15 08:25:08;;;;;;;6.30;2.03;;;;;;;0.97;100.00;98884.66;4992421;28;20215;-79
2024/01/15 08:27:34;;;;;;;3.60;1.80;;;;;;;0.96;100.00;98887.34;4992286;28;20234;-80
2024/01/15 08:30:00;;;;;;;4.57;1.60;;;;;;;1.00;100.00;98888.88;4984186;28;20556;-80
2024/01/15 08:32:27;;;;;;;8.83;2.10;;;;;;;1.00;100.00;98883.66;4992519;28;20233;-80
2024/01/15 08:34:53;;;;;;;5.57;2.40;;;;;;;1.04;100.00;98879.94;4988557;28;20220;-80
2024/01/15 08:37:20;;;;;;;6.37;3.77;;;;;;;1.03;100.00;98880.88;4998792;28;20234;-80
2024/01/15 08:39:46;;;;;;;6.33;2.50;;;;;;;1.02;100.00;98879.19;4988568;28;20203;-81
2024/01/15 08:42:14;;;;;;;5.60;2.30;;;;;;;1.03;100.00;98873.00;4988720;28;20214;-80
2024/01/15 08:44:43;;;;;;;5.57;2.40;;;;;;;1.06;100.00;98874.63;4994560;28;20229;-81
2024/01/15 08:47:09;;;;;;;3.93;2.20;;;;;;;1.05;100.00;98884.25;4993413;28;20231;-81
2024/01/15 08:49:36;;;;;;;4.43;1.90;;;;;;;1.04;100.00;98900.91;4991062;28;20619;-80
2024/01/15 08:52:03;;;;;;;5.23;1.97;;;;;;;1.02;100.00;98882.66;4981447;28;20212;-80
2024/01/15 08:54:29;;;;;;;5.37;2.00;;;;;;;1.02;100.00;98882.66;4992144;28;20671;-80
2024/01/15 08:56:55;;;;;;;4.63;2.27;;;;;;;1.05;100.00;98886.88;4992756;28;20586;-80
2024/01/15 08:59:25;;;;;;;4.57;2.03;;;;;;;1.07;100.00;98895.53;4990234;28;20664;-80
2024/01/15 09:01:52;;;;;;;5.17;2.10;;;;;;;1.09;100.00;98888.38;4990423;28;20620;-80
2024/01/15 09:04:19;;;;;;;3.93;2.00;;;;;;;1.09;100.00;98890.16;4995518;28;20214;-80
2024/01/15 09:06:46;;;;;;;5.27;1.93;;;;;;;1.12;100.00;98885.63;4994635;28;20232;-80
2024/01/15 09:09:13;;;;;;;3.93;1.90;;;;;;;1.11;100.00;98883.91;4989565;28;20203;-80
2024/01/15 09:11:40;;;;;;;4.27;1.73;;;;;;;1.11;100.00;98891.78;4990312;28;20204;-81
2024/01/15 09:14:06;;;;;;;3.60;1.97;;;;;;;1.08;100.00;98891.94;4984348;28;20257;-80
2024/01/15 09:16:34;;;;;;;6.73;2.77;;;;;;;1.08;100.00;98891.94;4985442;28;20605;-78
2024/01/15 09:19:00;;;;;;;5.97;2.30;;;;;;;1.10;100.00;98895.31;4990428;28;20215;-78
2024/01/15 09:21:27;;;;;;;3.27;1.97;;;;;;;1.12;100.00;98895.25;4985949;28;20219;-80
2024/01/15 09:23:53;;;;;;;5.73;2.03;;;;;;;1.15;100.00;98890.69;4984430;28;20204;-78
2024/01/15 09:26:20;;;;;;;7.00;2.20;;;;;;;1.20;100.00;98898.31;4990241;28;20330;-80
2024/01/15 09:28:46;;;;;;;7.30;2.60;;;;;;;1.24;100.00;98899.88;4993074;28;20238;-79
2024/01/15 09:31:12;;;;;;;4.33;1.77;;;;;;;1.25;100.00;98893.69;4989409;28;20207;-77
2024/01/15 09:33:40;;;;;;;4.43;1.87;;;;;;;1.27;100.00;98897.06;4982693;28;20231;-80
2024/01/15 09:36:07;;;;;;;5.60;2.00;;;;;;;1.27;100.00;98902.31;4986459;28;20204;-78
2024/01/15 09:38:33;;;;;;;2.67;1.80;;;;;;;1.26;100.00;98900.59;4989882;28;20228;-77
2024/01/15 09:41:00;;;;;;;4.57;1.77;;;;;;;1.29;100.00;98911.78;4986130;28;20212;-77
2024/01/15 09:43:27;;;;;;;5.33;1.80;;;;;;;1.37;100.00;98908.75;4983424;28;20207;-77
2024/01/15 09:45:54;;;;;;;9.37;2.20;;;;;;;1.43;100.00;98910.22;4988063;28;20203;-77
2024/01/15 09:48:21;;;;;;;6.27;2.73;;;;;;;1.39;100.00;98912.16;4988806;28;20244;-79
2024/01/15 09:50:50;;;;;;;4.53;2.10;;;;;;;1.42;100.00;98913.78;4987984;28;20207;-80
2024/01/15 09:53:16;;;;;;;4.63;1.90;;;;;;;1.42;100.00;98919.88;4986339;28;20232;-80
2024/01/15 09:55:43;;;;;;;5.30;1.73;;;;;;;1.44;100.00;98915.34;4990413;28;20278;-79
2024/01/15 09:58:10;;;;;;;5.83;1.87;;;;;;;1.45;100.00;98918.81;4989856;28;20228;-79
2024/01/15 10:00:41;;;;;;;5.70;1.80;;;;;;;1.45;100.00;98911.81;4988015;28;20208;-79
2024/01/15 10:03:10;;;;;;;5.13;2.00;;;;;;;1.47;100.00;98917.81;4982594;28;20284;-80
2024/01/15 10:05:36;;;;;;;4.40;1.70;;;;;;;1.54;99.88;98907.84;4995977;28;20229;-80
2024/01/15 10:08:05;;;;;;;4.43;1.57;;;;;;;1.55;99.49;98918.28;4991857;28;20596;-79
2024/01/15 10:10:32;;;;;;;4.07;1.47;;;;;;;1.58;99.38;98930.38;4988943;28;20234;-80
2024/01/15 10:12:59;;;;;;;5.07;1.60;;;;;;;1.60;99.37;98933.78;4995942;28;20228;-79
2024/01/15 10:15:27;;;;;;;2.80;1.50;;;;;;;1.59;98.88;98930.31;4990298;28;20580;-77
2024/01/15 10:17:53;;;;;;;3.07;1.70;;;;;;;1.62;100.00;98950.25;4990019;28;20750;-80
2024/01/15 10:20:22;;;;;;;3.30;1.80;;;;;;;1.58;100.00;98938.25;4983960;28;20212;-80
2024/01/15 10:22:49;;;;;;;4.70;1.20;;;;;;;1.54;100.00;98937.56;4999360;28;20200;-80
2024/01/15 10:25:22;;;;;;;5.27;1.70;;;;;;;1.46;100.00;98923.16;4996004;28;20211;-80
2024/01/15 10:28:01;;;;;;;4.73;1.73;;;;;;;1.39;100.00;98928.75;4989332;28;21007;-80
2024/01/15 10:30:27;;;;;;;4.33;1.40;;;;;;;1.35;100.00;98915.88;4993315;28;20208;-81
2024/01/15 10:32:59;;;;;;;5.17;1.43;;;;;;;1.29;100.00;98917.03;4997655;28;20239;-79
2024/01/15 10:35:28;;;;;;;3.43;1.37;;;;;;;1.26;100.00;98916.34;4988083;28;20204;-81
2024/01/15 10:37:54;;;;;;;3.20;1.70;;;;;;;1.25;100.00;98905.03;4991840;28;20223;-80
2024/01/15 10:40:22;;;;;;;3.13;1.20;;;;;;;1.25;100.00;98915.53;4992784;28;20225;-80
2024/01/15 10:42:48;;;;;;;4.00;1.83;;;;;;;1.28;100.00;98914.50;4998453;28;20203;-78
2024/01/15 10:45:15;;;;;;;4.83;1.40;;;;;;;1.28;100.00;98917.94;4995718;28;20925;-80
2024/01/15 10:47:43;;;;;;;2.60;1.20;;;;;;;1.29;100.00;98914.41;4986483;28;20236;-80
2024/01/15 10:50:10;;;;;;;4.07;1.30;;;;;;;1.32;100.00;98929.97;4993875;28;20230;-81
2024/01/15 10:52:39;;;;;;;2.50;1.30;;;;;;;1.33;100.00;98930.84;4995288;28;20723;-80
2024/01/15 10:55:08;;;;;;;6.53;1.53;;;;;;;1.33;100.00;98930.84;4997856;28;20261;-80
2024/01/15 10:57:37;;;;;;;2.00;0.90;;;;;;;1.35;100.00;98937.69;4993730;28;20224;-80
2024/01/15 11:00:05;;;;;;;2.93;1.10;;;;;;;1.34;100.00;98932.53;4993647;28;20212;-80
2024/01/15 11:02:33;;;;;;;4.33;1.77;;;;;;;1.35;99.72;98929.81;4992560;28;20619;-80
2024/01/15 11:05:00;;;;;;;4.73;1.50;;;;;;;1.37;100.00;98935.00;4993663;28;20196;-80
2024/01/15 11:07:27;;;;;;;4.47;1.80;;;;;;;1.43;100.00;98920.72;4991555;28;20585;-80
2024/01/15 11:09:53;;;;;;;5.87;2.83;;;;;;;1.42;98.85;98921.66;4992315;28;20203;-80
2024/01/15 11:12:20;;;;;;;4.07;1.73;;;;;;;1.39;99.53;98923.50;4983472;28;20213;-80
2024/01/15 11:14:49;;;;;;;3.90;1.47;;;;;;;1.44;99.53;98914.50;4981762;28;20239;-80
2024/01/15 11:17:16;;;;;;;3.63;1.70;;;;;;;1.42;98.96;98921.66;4984320;28;20235;-77
2024/01/15 11:19:47;;;;;;;4.97;1.87;;;;;;;1.46;98.15;98917.91;4983656;28;20670;-80
2024/01/15 11:22:43;;;;;;;3.47;1.60;;;;;;;1.44;98.26;98922.38;4987131;28;20227;-80
2024/01/15 11:25:14;;;;;;;5.00;2.03;;;;;;;1.48;98.35;98913.41;4988703;28;20588;-80
2024/01/15 11:27:41;;;;;;;5.10;1.60;;;;;;;1.50;97.41;98914.19;4996073;28;20228;-80
2024/01/15 11:30:12;;;;;;;4.07;1.80;;;;;;;1.49;98.50;98907.25;4994940;28;20203;-80
2024/01/15 11:32:41;;;;;;;3.83;1.50;;;;;;;1.49;97.44;98909.88;4993058;28;20219;-80